createdAt,value
2022-08-21T00:00:45.688Z,51.111252
2022-08-21T00:01:45.717Z,51.111290
2022-08-21T00:02:46.010Z,51.111237
2022-08-21T00:03:45.648Z,51.111271
2022-08-21T00:04:48.300Z,51.111275
2022-08-21T00:05:46.626Z,51.111286
2022-08-21T00:06:45.653Z,51.111298
2022-08-21T00:07:45.784Z,51.111294
2022-08-21T00:08:45.648Z,51.111309
2022-08-21T00:09:45.741Z,51.111298
2022-08-21T00:10:45.662Z,51.111279
2022-08-21T00:11:45.644Z,51.111294
2022-08-21T00:12:45.634Z,51.111294
2022-08-21T00:13:45.685Z,51.111294
2022-08-21T00:14:45.617Z,51.111275
2022-08-21T00:15:45.612Z,51.111267
2022-08-21T00:16:45.597Z,51.111221
2022-08-21T00:17:45.594Z,51.111240
2022-08-21T00:18:45.614Z,51.111267
2022-08-21T00:19:45.598Z,51.111282
2022-08-21T00:20:45.556Z,51.111267
2022-08-21T00:21:45.562Z,51.111248
2022-08-21T00:22:46.564Z,51.111290
2022-08-21T00:23:45.596Z,51.111210
2022-08-21T00:24:45.529Z,51.111240
2022-08-21T00:25:45.548Z,51.111328
2022-08-21T00:26:45.551Z,51.111298
2022-08-21T00:27:45.551Z,51.111252
2022-08-21T00:28:45.596Z,51.111263
2022-08-21T00:29:45.554Z,51.111221
2022-08-21T00:30:45.567Z,51.111099
2022-08-21T00:31:45.546Z,51.111118
2022-08-21T00:32:45.559Z,51.111088
2022-08-21T00:33:45.496Z,51.111172
2022-08-21T00:34:45.547Z,51.111275
2022-08-21T00:35:45.482Z,51.111259
2022-08-21T00:36:45.471Z,51.111202
2022-08-21T00:37:45.447Z,51.111233
2022-08-21T00:38:45.440Z,51.111183
2022-08-21T00:39:45.539Z,51.111107
2022-08-21T00:40:45.450Z,51.111198
2022-08-21T00:41:45.431Z,51.111263
2022-08-21T00:42:59.231Z,51.111294
2022-08-21T00:43:47.457Z,51.111256
2022-08-21T00:44:45.464Z,51.111195
2022-08-21T00:45:45.408Z,51.111301
2022-08-21T00:46:45.421Z,51.111282
2022-08-21T00:47:45.326Z,51.111279
2022-08-21T00:48:45.326Z,51.111244
2022-08-21T00:49:45.315Z,51.111259
2022-08-21T00:50:45.345Z,51.111214
2022-08-21T00:51:45.293Z,51.111233
2022-08-21T00:52:45.293Z,51.111221
2022-08-21T00:53:45.270Z,51.111217
2022-08-21T00:54:46.636Z,51.111252
2022-08-21T00:55:45.282Z,51.111271
2022-08-21T00:56:45.273Z,51.111259
2022-08-21T00:57:45.315Z,51.111259
2022-08-21T00:58:45.302Z,51.111259
2022-08-21T00:59:45.311Z,51.111263
2022-08-21T01:00:45.402Z,51.111263
2022-08-21T01:01:45.305Z,51.111252
2022-08-21T01:02:45.314Z,51.111225
2022-08-21T01:03:45.379Z,51.111233
2022-08-21T01:04:45.278Z,51.111263
2022-08-21T01:05:45.268Z,51.111259
2022-08-21T01:06:45.301Z,51.111282
2022-08-21T01:07:45.263Z,51.111256
2022-08-21T01:08:46.926Z,51.111259
2022-08-21T01:09:45.241Z,51.111244
2022-08-21T01:10:45.215Z,51.111217
2022-08-21T01:11:45.247Z,51.111237
2022-08-21T01:12:45.253Z,51.111225
2022-08-21T01:13:45.211Z,51.111244
2022-08-21T01:14:45.247Z,51.111256
2022-08-21T01:15:45.223Z,51.111282
2022-08-21T01:16:45.263Z,51.111275
2022-08-21T01:17:45.164Z,51.111267
2022-08-21T01:18:45.256Z,51.111279
2022-08-21T01:19:45.148Z,51.111259
2022-08-21T01:20:45.153Z,51.111259
2022-08-21T01:21:45.155Z,51.111244
2022-08-21T01:22:45.167Z,51.111233
2022-08-21T01:23:45.177Z,51.111237
2022-08-21T01:24:45.106Z,51.111240
2022-08-21T01:25:45.146Z,51.111221
2022-08-21T01:26:45.157Z,51.111240
2022-08-21T01:27:45.120Z,51.111210
2022-08-21T01:28:45.094Z,51.111233
2022-08-21T01:29:45.128Z,51.111240
2022-08-21T01:30:45.090Z,51.111275
2022-08-21T01:31:45.135Z,51.111282
2022-08-21T01:32:45.122Z,51.111263
2022-08-21T01:33:45.076Z,51.111244
2022-08-21T01:34:45.048Z,51.111225
2022-08-21T01:35:44.981Z,51.111233
2022-08-21T01:36:44.972Z,51.111256
2022-08-21T01:37:44.945Z,51.111279
2022-08-21T01:38:45.013Z,51.111206
2022-08-21T01:39:45.006Z,51.111263
2022-08-21T01:40:44.934Z,51.111248
2022-08-21T01:41:45.008Z,51.111259
2022-08-21T01:42:44.993Z,51.111248
2022-08-21T01:43:45.012Z,51.111248
2022-08-21T01:44:44.978Z,51.111237
2022-08-21T01:45:44.914Z,51.111263
2022-08-21T01:46:44.982Z,51.111229
2022-08-21T01:47:44.948Z,51.111214
2022-08-21T01:48:44.994Z,51.111256
2022-08-21T01:49:44.986Z,51.111267
2022-08-21T01:50:44.915Z,51.111271
2022-08-21T01:51:44.920Z,51.111252
2022-08-21T01:52:44.917Z,51.111240
2022-08-21T01:53:44.921Z,51.111233
2022-08-21T01:54:44.963Z,51.111229
2022-08-21T01:55:44.907Z,51.111248
2022-08-21T01:56:44.936Z,51.111263
2022-08-21T01:57:44.910Z,51.111252
2022-08-21T01:58:44.942Z,51.111248
2022-08-21T01:59:44.995Z,51.111237
2022-08-21T02:00:45.034Z,51.111225
2022-08-21T02:01:44.862Z,51.111225
2022-08-21T02:02:44.870Z,51.111229
2022-08-21T02:03:44.825Z,51.111217
2022-08-21T02:04:44.925Z,51.111221
2022-08-21T02:05:44.852Z,51.111210
2022-08-21T02:06:44.803Z,51.111221
2022-08-21T02:07:44.833Z,51.111256
2022-08-21T02:08:44.830Z,51.111259
2022-08-21T02:09:44.805Z,51.111217
2022-08-21T02:10:49.131Z,51.111240
2022-08-21T02:11:44.813Z,51.111267
2022-08-21T02:12:44.796Z,51.111275
2022-08-21T02:13:44.775Z,51.111256
2022-08-21T02:14:44.764Z,51.111237
2022-08-21T02:15:44.812Z,51.111214
2022-08-21T02:16:44.727Z,51.111137
2022-08-21T02:17:44.780Z,51.111160
2022-08-21T02:18:44.725Z,51.111145
2022-08-21T02:19:44.765Z,51.111137
2022-08-21T02:20:44.777Z,51.111244
2022-08-21T02:21:44.749Z,51.111214
2022-08-21T02:22:44.748Z,51.111187
2022-08-21T02:23:44.775Z,51.111248
2022-08-21T02:24:54.378Z,51.111286
2022-08-21T02:25:45.738Z,51.111279
2022-08-21T02:26:44.713Z,51.111271
2022-08-21T02:27:44.697Z,51.111343
2022-08-21T02:28:44.644Z,51.111275
2022-08-21T02:29:44.691Z,51.111263
2022-08-21T02:30:44.659Z,51.111198
2022-08-21T02:31:44.639Z,51.111298
2022-08-21T02:32:44.629Z,51.111305
2022-08-21T02:33:44.625Z,51.111252
2022-08-21T02:34:44.626Z,51.111252
2022-08-21T02:35:44.633Z,51.111256
2022-08-21T02:36:44.615Z,51.111176
2022-08-21T02:37:45.585Z,51.111275
2022-08-21T02:39:11.742Z,51.111252
2022-08-21T02:39:45.558Z,51.111256
2022-08-21T02:40:48.313Z,51.111271
2022-08-21T02:41:45.608Z,51.111202
2022-08-21T02:42:44.507Z,51.111237
2022-08-21T02:43:44.468Z,51.111347
2022-08-21T02:44:44.497Z,51.111362
2022-08-21T02:45:44.503Z,51.111298
2022-08-21T02:46:44.450Z,51.111263
2022-08-21T02:47:44.498Z,51.111214
2022-08-21T02:48:44.535Z,51.111187
2022-08-21T02:49:44.538Z,51.111366
2022-08-21T02:50:44.528Z,51.111374
2022-08-21T02:51:44.561Z,51.111320
2022-08-21T02:52:44.557Z,51.111259
2022-08-21T02:53:44.513Z,51.111309
2022-08-21T02:54:44.473Z,51.111332
2022-08-21T02:55:44.530Z,51.111374
2022-08-21T02:56:44.452Z,51.111397
2022-08-21T02:57:44.513Z,51.111423
2022-08-21T02:58:44.475Z,51.111286
2022-08-21T02:59:44.434Z,51.111259
2022-08-21T03:00:44.452Z,51.111347
2022-08-21T03:01:44.478Z,51.111282
2022-08-21T03:02:44.445Z,51.111202
2022-08-21T03:03:44.993Z,51.111347
2022-08-21T03:04:46.702Z,51.111366
2022-08-21T03:05:45.442Z,51.111320
2022-08-21T03:06:44.388Z,51.111328
2022-08-21T03:07:44.460Z,51.111279
2022-08-21T03:08:44.383Z,51.111195
2022-08-21T03:09:55.302Z,51.111195
2022-08-21T03:10:45.291Z,51.111217
2022-08-21T03:11:45.431Z,51.111229
2022-08-21T03:12:44.396Z,51.111279
2022-08-21T03:13:44.421Z,51.111248
2022-08-21T03:14:44.373Z,51.111221
2022-08-21T03:15:44.335Z,51.111233
2022-08-21T03:16:44.348Z,51.111183
2022-08-21T03:19:52.196Z,51.111221
2022-08-21T03:20:52.136Z,51.111298
2022-08-21T03:21:52.038Z,51.111259
2022-08-21T03:22:52.902Z,51.111320
2022-08-21T03:23:52.112Z,51.111298
2022-08-21T03:24:52.140Z,51.111294
2022-08-21T03:25:52.150Z,51.111252
2022-08-21T03:26:52.146Z,51.111313
2022-08-21T03:27:54.935Z,51.111355
2022-08-21T03:28:53.176Z,51.111294
2022-08-21T03:29:52.145Z,51.111290
2022-08-21T03:30:52.086Z,51.111263
2022-08-21T03:31:52.161Z,51.111217
2022-08-21T03:32:52.074Z,51.111252
2022-08-21T03:33:52.159Z,51.111271
2022-08-21T03:34:52.054Z,51.111237
2022-08-21T03:35:52.050Z,51.111248
2022-08-21T03:36:52.020Z,51.111248
2022-08-21T03:37:51.953Z,51.111298
2022-08-21T03:38:52.047Z,51.111286
2022-08-21T03:39:52.151Z,51.111229
2022-08-21T03:40:52.051Z,51.111229
2022-08-21T03:41:52.007Z,51.111244
2022-08-21T03:42:51.998Z,51.111244
2022-08-21T03:43:52.005Z,51.111282
2022-08-21T03:44:52.013Z,51.111340
2022-08-21T03:45:52.575Z,51.111320
2022-08-21T03:46:52.015Z,51.111340
2022-08-21T03:47:51.994Z,51.111305
2022-08-21T03:48:51.987Z,51.111286
2022-08-21T03:49:51.997Z,51.111317
2022-08-21T03:50:52.001Z,51.111313
2022-08-21T03:51:59.125Z,51.111240
2022-08-21T03:52:52.992Z,51.111259
2022-08-21T03:53:51.886Z,51.111282
2022-08-21T03:54:52.053Z,51.111271
2022-08-21T03:55:51.919Z,51.111267
2022-08-21T03:56:51.816Z,51.111263
2022-08-21T03:57:51.811Z,51.111279
2022-08-21T03:58:51.796Z,51.111275
2022-08-21T03:59:51.813Z,51.111279
2022-08-21T04:00:51.824Z,51.111282
2022-08-21T04:01:51.841Z,51.111267
2022-08-21T04:02:51.773Z,51.111263
2022-08-21T04:03:51.783Z,51.111237
2022-08-21T04:04:51.764Z,51.111263
2022-08-21T04:05:51.807Z,51.111286
2022-08-21T04:06:51.726Z,51.111290
2022-08-21T04:07:51.748Z,51.111282
2022-08-21T04:08:51.703Z,51.111320
2022-08-21T04:09:51.756Z,51.111248
2022-08-21T04:10:51.823Z,51.111267
2022-08-21T04:11:51.907Z,51.111282
2022-08-21T04:12:51.814Z,51.111294
2022-08-21T04:13:51.822Z,51.111279
2022-08-21T04:14:51.771Z,51.111286
2022-08-21T04:15:51.826Z,51.111286
2022-08-21T04:16:51.981Z,51.111305
2022-08-21T04:17:51.854Z,51.111298
2022-08-21T04:18:51.737Z,51.111298
2022-08-21T04:19:53.799Z,51.111290
2022-08-21T04:20:52.737Z,51.111298
2022-08-21T04:21:52.618Z,51.111286
2022-08-21T04:22:51.983Z,51.111294
2022-08-21T04:23:51.724Z,51.111298
2022-08-21T04:24:51.681Z,51.111294
2022-08-21T04:25:51.703Z,51.111290
2022-08-21T04:26:51.667Z,51.111290
2022-08-21T04:27:51.720Z,51.111282
2022-08-21T04:28:51.682Z,51.111298
2022-08-21T04:29:51.675Z,51.111301
2022-08-21T04:30:51.656Z,51.111290
2022-08-21T04:31:51.636Z,51.111317
2022-08-21T04:32:51.712Z,51.111282
2022-08-21T04:33:51.663Z,51.111305
2022-08-21T04:34:51.682Z,51.111301
2022-08-21T04:35:51.635Z,51.111301
2022-08-21T04:36:51.649Z,51.111279
2022-08-21T04:37:51.587Z,51.111301
2022-08-21T04:38:51.720Z,51.111275
2022-08-21T04:39:53.567Z,51.111271
2022-08-21T04:40:52.635Z,51.111309
2022-08-21T04:41:51.596Z,51.111279
2022-08-21T04:42:51.619Z,51.111271
2022-08-21T04:43:51.653Z,51.111313
2022-08-21T04:44:51.580Z,51.111309
2022-08-21T04:45:51.584Z,51.111305
2022-08-21T04:46:51.534Z,51.111313
2022-08-21T04:47:52.634Z,51.111320
2022-08-21T04:48:51.517Z,51.111347
2022-08-21T04:49:51.549Z,51.111328
2022-08-21T04:50:51.478Z,51.111324
2022-08-21T04:51:51.497Z,51.111324
2022-08-21T04:52:51.507Z,51.111324
2022-08-21T04:53:51.470Z,51.111313
2022-08-21T04:54:54.807Z,51.111332
2022-08-21T04:55:52.451Z,51.111324
2022-08-21T04:56:51.510Z,51.111301
2022-08-21T04:57:51.494Z,51.111267
2022-08-21T04:58:51.445Z,51.111332
2022-08-21T04:59:51.522Z,51.111336
2022-08-21T05:00:51.440Z,51.111340
2022-08-21T05:01:51.541Z,51.111313
2022-08-21T05:02:52.392Z,51.111332
2022-08-21T05:03:51.423Z,51.111301
2022-08-21T05:04:51.379Z,51.111359
2022-08-21T05:05:51.374Z,51.111343
2022-08-21T05:06:51.287Z,51.111355
2022-08-21T05:07:51.297Z,51.111271
2022-08-21T05:08:51.262Z,51.111320
2022-08-21T05:09:52.335Z,51.111332
2022-08-21T05:10:51.296Z,51.111385
2022-08-21T05:11:51.258Z,51.111366
2022-08-21T05:12:51.288Z,51.111324
2022-08-21T05:13:54.965Z,51.111282
2022-08-21T05:14:52.218Z,51.111256
2022-08-21T05:15:51.255Z,51.111248
2022-08-21T05:16:51.324Z,51.111282
2022-08-21T05:17:53.588Z,51.111259
2022-08-21T05:18:52.197Z,51.111275
2022-08-21T05:19:51.288Z,51.111256
2022-08-21T05:20:51.561Z,51.111290
2022-08-21T05:21:51.264Z,51.111244
2022-08-21T05:22:51.402Z,51.111282
2022-08-21T05:23:51.241Z,51.111332
2022-08-21T05:24:51.252Z,51.111389
2022-08-21T05:25:51.254Z,51.111290
2022-08-21T05:26:51.308Z,51.111282
2022-08-21T05:27:52.238Z,51.111286
2022-08-21T05:28:51.269Z,51.111313
2022-08-21T05:29:51.208Z,51.111382
2022-08-21T05:30:51.193Z,51.111343
2022-08-21T05:31:51.216Z,51.111309
2022-08-21T05:32:51.249Z,51.111286
2022-08-21T05:33:52.042Z,51.111294
2022-08-21T05:34:51.158Z,51.111259
2022-08-21T05:35:51.149Z,51.111217
2022-08-21T05:36:51.232Z,51.111237
2022-08-21T05:37:51.151Z,51.111275
2022-08-21T05:38:51.174Z,51.111279
2022-08-21T05:40:20.993Z,51.111256
2022-08-21T05:40:52.092Z,51.111221
2022-08-21T05:41:51.188Z,51.111244
2022-08-21T05:42:54.914Z,51.111172
2022-08-21T05:43:51.150Z,51.111149
2022-08-21T05:44:51.083Z,51.111206
2022-08-21T05:45:51.129Z,51.111240
2022-08-21T05:46:51.113Z,51.111202
2022-08-21T05:47:51.139Z,51.111248
2022-08-21T05:48:51.086Z,51.111237
2022-08-21T05:49:51.102Z,51.111225
2022-08-21T05:50:51.051Z,51.111191
2022-08-21T05:51:51.044Z,51.111221
2022-08-21T05:52:51.131Z,51.111244
2022-08-21T05:53:52.123Z,51.111248
2022-08-21T05:54:51.025Z,51.111233
2022-08-21T05:55:51.028Z,51.111237
2022-08-21T05:56:51.010Z,51.111214
2022-08-21T05:57:51.051Z,51.111179
2022-08-21T05:58:51.022Z,51.111210
2022-08-21T05:59:50.984Z,51.111225
2022-08-21T06:00:50.992Z,51.111221
2022-08-21T06:01:50.996Z,51.111225
2022-08-21T06:02:51.075Z,51.111225
2022-08-21T06:03:50.969Z,51.111244
2022-08-21T06:04:51.031Z,51.111237
2022-08-21T06:05:50.943Z,51.111271
2022-08-21T06:06:51.000Z,51.111217
2022-08-21T06:07:50.933Z,51.111183
2022-08-21T06:08:50.936Z,51.111217
2022-08-21T06:09:50.912Z,51.111229
2022-08-21T06:10:50.891Z,51.111248
2022-08-21T06:11:50.884Z,51.111214
2022-08-21T06:12:50.895Z,51.111259
2022-08-21T06:13:50.838Z,51.111252
2022-08-21T06:14:50.830Z,51.111271
2022-08-21T06:15:50.824Z,51.111256
2022-08-21T06:16:51.636Z,51.111263
2022-08-21T06:17:50.847Z,51.111263
2022-08-21T06:18:50.796Z,51.111229
2022-08-21T06:19:50.825Z,51.111259
2022-08-21T06:20:50.764Z,51.111252
2022-08-21T06:21:50.746Z,51.111282
2022-08-21T06:22:50.815Z,51.111263
2022-08-21T06:23:50.835Z,51.111237
2022-08-21T06:24:51.227Z,51.111179
2022-08-21T06:25:50.840Z,51.111229
2022-08-21T06:26:50.765Z,51.111244
2022-08-21T06:27:50.838Z,51.111214
2022-08-21T06:28:50.776Z,51.111198
2022-08-21T06:29:50.772Z,51.111210
2022-08-21T06:30:50.800Z,51.111248
2022-08-21T06:31:50.766Z,51.111233
2022-08-21T06:32:50.745Z,51.111210
2022-08-21T06:33:50.722Z,51.111233
2022-08-21T06:34:50.715Z,51.111244
2022-08-21T06:35:50.760Z,51.111263
2022-08-21T06:36:50.733Z,51.111248
2022-08-21T06:37:50.710Z,51.111240
2022-08-21T06:38:51.584Z,51.111210
2022-08-21T06:39:50.768Z,51.111198
2022-08-21T06:40:50.695Z,51.111237
2022-08-21T06:41:50.702Z,51.111267
2022-08-21T06:42:50.673Z,51.111252
2022-08-21T06:43:50.648Z,51.111256
2022-08-21T06:44:50.684Z,51.111229
2022-08-21T06:45:50.679Z,51.111229
2022-08-21T06:46:50.680Z,51.111240
2022-08-21T06:47:50.644Z,51.111233
2022-08-21T06:48:50.682Z,51.111244
2022-08-21T06:49:50.607Z,51.111244
2022-08-21T06:50:50.695Z,51.111233
2022-08-21T06:51:50.702Z,51.111237
2022-08-21T06:52:50.615Z,51.111259
2022-08-21T06:53:50.602Z,51.111256
2022-08-21T06:54:50.604Z,51.111229
2022-08-21T06:55:50.615Z,51.111225
2022-08-21T06:56:50.590Z,51.111233
2022-08-21T06:57:52.406Z,51.111202
2022-08-21T06:58:50.541Z,51.111214
2022-08-21T06:59:50.550Z,51.111221
2022-08-21T07:00:50.547Z,51.111225
2022-08-21T07:01:50.661Z,51.111240
2022-08-21T07:02:50.451Z,51.111237
2022-08-21T07:03:50.457Z,51.111233
2022-08-21T07:04:50.430Z,51.111225
2022-08-21T07:05:50.444Z,51.111221
2022-08-21T07:06:50.437Z,51.111214
2022-08-21T07:07:50.559Z,51.111221
2022-08-21T07:08:50.458Z,51.111183
2022-08-21T07:09:50.549Z,51.111206
2022-08-21T07:10:50.491Z,51.111217
2022-08-21T07:11:50.541Z,51.111229
2022-08-21T07:12:51.091Z,51.111233
2022-08-21T07:13:51.381Z,51.111225
2022-08-21T07:14:50.428Z,51.111248
2022-08-21T07:15:50.400Z,51.111240
2022-08-21T07:16:50.396Z,51.111206
2022-08-21T07:17:50.465Z,51.111221
2022-08-21T07:18:50.418Z,51.111210
2022-08-21T07:19:50.371Z,51.111202
2022-08-21T07:20:50.393Z,51.111221
2022-08-21T07:21:50.445Z,51.111221
2022-08-21T07:22:50.402Z,51.111210
2022-08-21T07:23:50.413Z,51.111229
2022-08-21T07:24:50.395Z,51.111225
2022-08-21T07:25:50.374Z,51.111267
2022-08-21T07:26:50.329Z,51.111271
2022-08-21T07:27:50.342Z,51.111252
2022-08-21T07:28:50.630Z,51.111229
2022-08-21T07:29:50.308Z,51.111210
2022-08-21T07:30:50.352Z,51.111237
2022-08-21T07:31:50.296Z,51.111240
2022-08-21T07:32:50.378Z,51.111229
2022-08-21T07:33:50.346Z,51.111214
2022-08-21T07:34:50.281Z,51.111214
2022-08-21T07:35:50.311Z,51.111217
2022-08-21T07:36:50.273Z,51.111248
2022-08-21T07:37:50.276Z,51.111214
2022-08-21T07:38:52.597Z,51.111214
2022-08-21T07:39:50.367Z,51.111214
2022-08-21T07:40:50.253Z,51.111229
2022-08-21T07:41:50.227Z,51.111229
2022-08-21T07:42:50.251Z,51.111225
2022-08-21T07:43:52.681Z,51.111229
2022-08-21T07:44:50.257Z,51.111233
2022-08-21T07:45:50.113Z,51.111217
2022-08-21T07:46:50.143Z,51.111229
2022-08-21T07:47:53.026Z,51.111214
2022-08-21T07:48:51.333Z,51.111202
2022-08-21T07:49:50.182Z,51.111176
2022-08-21T07:50:50.156Z,51.111221
2022-08-21T07:51:50.217Z,51.111233
2022-08-21T07:52:50.137Z,51.111214
2022-08-21T07:53:50.216Z,51.111233
2022-08-21T07:54:50.110Z,51.111256
2022-08-21T07:55:50.158Z,51.111275
2022-08-21T07:56:50.125Z,51.111225
2022-08-21T07:57:51.154Z,51.111153
2022-08-21T07:58:50.102Z,51.111172
2022-08-21T07:59:50.115Z,51.111217
2022-08-21T08:00:50.300Z,51.111256
2022-08-21T08:01:50.098Z,51.111263
2022-08-21T08:02:50.057Z,51.111225
2022-08-21T08:03:50.106Z,51.111179
2022-08-21T08:04:50.620Z,51.111229
2022-08-21T08:05:50.104Z,51.111244
2022-08-21T08:06:50.067Z,51.111244
2022-08-21T08:07:50.055Z,51.111298
2022-08-21T08:08:50.024Z,51.111282
2022-08-21T08:09:50.021Z,51.111240
2022-08-21T08:10:50.058Z,51.111202
2022-08-21T08:11:50.009Z,51.111156
2022-08-21T08:12:50.079Z,51.111202
2022-08-21T08:13:50.008Z,51.111298
2022-08-21T08:14:50.025Z,51.111290
2022-08-21T08:15:50.014Z,51.111217
2022-08-21T08:16:50.028Z,51.111217
2022-08-21T08:17:49.965Z,51.111214
2022-08-21T08:18:49.949Z,51.111290
2022-08-21T08:19:49.950Z,51.111301
2022-08-21T08:20:49.958Z,51.111279
2022-08-21T08:21:50.873Z,51.111298
2022-08-21T08:22:50.346Z,51.111275
2022-08-21T08:23:49.845Z,51.111202
2022-08-21T08:24:49.806Z,51.111179
2022-08-21T08:25:49.841Z,51.111225
2022-08-21T08:26:53.763Z,51.111214
2022-08-21T08:27:49.836Z,51.111198
2022-08-21T08:28:49.806Z,51.111187
2022-08-21T08:29:49.824Z,51.111198
2022-08-21T08:30:49.766Z,51.111160
2022-08-21T08:31:49.818Z,51.111107
2022-08-21T08:32:50.820Z,51.111153
2022-08-21T08:33:49.812Z,51.111244
2022-08-21T08:34:49.771Z,51.111290
2022-08-21T08:35:49.787Z,51.111301
2022-08-21T08:36:49.869Z,51.111286
2022-08-21T08:37:52.310Z,51.111256
2022-08-21T08:38:49.735Z,51.111229
2022-08-21T08:39:50.761Z,51.111149
2022-08-21T08:40:49.727Z,51.111210
2022-08-21T08:41:49.739Z,51.111130
2022-08-21T08:42:50.820Z,51.111206
2022-08-21T08:43:49.699Z,51.111248
2022-08-21T08:44:49.774Z,51.111217
2022-08-21T08:45:49.710Z,51.111244
2022-08-21T08:46:49.772Z,51.111309
2022-08-21T08:47:49.777Z,51.111248
2022-08-21T08:48:53.156Z,51.111259
2022-08-21T08:49:50.740Z,51.111187
2022-08-21T08:50:49.727Z,51.111176
2022-08-21T08:51:52.907Z,51.111099
2022-08-21T08:52:49.763Z,51.111256
2022-08-21T08:53:49.770Z,51.111301
2022-08-21T08:54:49.714Z,51.111343
2022-08-21T08:55:49.716Z,51.111286
2022-08-21T08:56:49.757Z,51.111233
2022-08-21T08:57:50.317Z,51.111187
2022-08-21T08:58:49.788Z,51.111229
2022-08-21T08:59:49.637Z,51.111237
2022-08-21T09:00:49.797Z,51.111256
2022-08-21T09:01:49.753Z,51.111286
2022-08-21T09:02:49.691Z,51.111256
2022-08-21T09:03:49.625Z,51.111298
2022-08-21T09:04:49.674Z,51.111351
2022-08-21T09:05:49.633Z,51.111256
2022-08-21T09:06:49.616Z,51.111233
2022-08-21T09:07:49.606Z,51.111237
2022-08-21T09:08:49.607Z,51.111252
2022-08-21T09:09:49.653Z,51.111256
2022-08-21T09:10:49.596Z,51.111240
2022-08-21T09:11:49.576Z,51.111217
2022-08-21T09:12:50.571Z,51.111259
2022-08-21T09:13:49.573Z,51.111229
2022-08-21T09:14:49.627Z,51.111214
2022-08-21T09:15:49.544Z,51.111233
2022-08-21T09:16:49.538Z,51.111233
2022-08-21T09:17:49.594Z,51.111256
2022-08-21T09:18:49.572Z,51.111267
2022-08-21T09:19:49.542Z,51.111267
2022-08-21T09:20:49.505Z,51.111237
2022-08-21T09:21:50.355Z,51.111244
2022-08-21T09:22:49.415Z,51.111237
2022-08-21T09:23:49.426Z,51.111233
2022-08-21T09:24:51.995Z,51.111244
2022-08-21T09:25:50.459Z,51.111248
2022-08-21T09:26:49.379Z,51.111244
2022-08-21T09:27:49.385Z,51.111244
2022-08-21T09:28:49.419Z,51.111248
2022-08-21T09:29:49.396Z,51.111237
2022-08-21T09:30:49.785Z,51.111248
2022-08-21T09:31:49.458Z,51.111210
2022-08-21T09:32:49.434Z,51.111221
2022-08-21T09:33:49.452Z,51.111263
2022-08-21T09:34:49.446Z,51.111248
2022-08-21T09:35:49.396Z,51.111279
2022-08-21T09:36:49.471Z,51.111263
2022-08-21T09:37:49.418Z,51.111252
2022-08-21T09:38:49.402Z,51.111252
2022-08-21T09:39:49.429Z,51.111275
2022-08-21T09:40:49.453Z,51.111282
2022-08-21T09:41:49.436Z,51.111271
2022-08-21T09:42:49.390Z,51.111271
2022-08-21T09:43:49.356Z,51.111275
2022-08-21T09:44:49.431Z,51.111267
2022-08-21T09:45:49.352Z,51.111275
2022-08-21T09:46:49.363Z,51.111263
2022-08-21T09:47:49.312Z,51.111271
2022-08-21T09:48:49.322Z,51.111263
2022-08-21T09:49:49.299Z,51.111267
2022-08-21T09:50:49.311Z,51.111263
2022-08-21T09:51:49.321Z,51.111256
2022-08-21T09:52:49.290Z,51.111252
2022-08-21T09:53:49.320Z,51.111237
2022-08-21T09:54:49.255Z,51.111217
2022-08-21T09:55:49.294Z,51.111229
2022-08-21T09:56:49.242Z,51.111237
2022-08-21T09:57:50.659Z,51.111229
2022-08-21T09:58:49.226Z,51.111237
2022-08-21T09:59:49.218Z,51.111240
2022-08-21T10:00:49.275Z,51.111267
2022-08-21T10:01:49.271Z,51.111275
2022-08-21T10:02:49.255Z,51.111259
2022-08-21T10:03:49.255Z,51.111244
2022-08-21T10:04:49.210Z,51.111244
2022-08-21T10:05:49.279Z,51.111271
2022-08-21T10:06:49.200Z,51.111259
2022-08-21T10:07:49.209Z,51.111271
2022-08-21T10:08:49.128Z,51.111271
2022-08-21T10:09:49.153Z,51.111259
2022-08-21T10:10:49.077Z,51.111248
2022-08-21T10:11:50.120Z,51.111248
2022-08-21T10:12:49.075Z,51.111290
2022-08-21T10:13:49.111Z,51.111271
2022-08-21T10:14:49.072Z,51.111210
2022-08-21T10:15:49.084Z,51.111259
2022-08-21T10:16:49.022Z,51.111271
2022-08-21T10:17:50.045Z,51.111290
2022-08-21T10:18:49.066Z,51.111282
2022-08-21T10:19:48.995Z,51.111320
2022-08-21T10:20:49.010Z,51.111301
2022-08-21T10:21:49.153Z,51.111301
2022-08-21T10:22:48.976Z,51.111320
2022-08-21T10:23:48.994Z,51.111332
2022-08-21T10:24:49.021Z,51.111328
2022-08-21T10:25:52.044Z,51.111362
2022-08-21T10:26:49.940Z,51.111309
2022-08-21T10:27:48.932Z,51.111320
2022-08-21T10:28:49.122Z,51.111294
2022-08-21T10:29:49.066Z,51.111305
2022-08-21T10:30:49.008Z,51.111298
2022-08-21T10:31:49.555Z,51.111298
2022-08-21T10:32:48.895Z,51.111370
2022-08-21T10:33:48.947Z,51.111336
2022-08-21T10:34:49.342Z,51.111305
2022-08-21T10:35:48.973Z,51.111286
2022-08-21T10:36:48.983Z,51.111263
2022-08-21T10:37:48.950Z,51.111305
2022-08-21T10:39:07.118Z,51.111317
2022-08-21T10:39:50.942Z,51.111275
2022-08-21T10:40:48.932Z,51.111252
2022-08-21T10:41:48.961Z,51.111286
2022-08-21T10:42:48.910Z,51.111309
2022-08-21T10:43:48.911Z,51.111298
2022-08-21T10:44:48.911Z,51.111282
2022-08-21T10:45:48.983Z,51.111282
2022-08-21T10:46:48.902Z,51.111195
2022-08-21T10:47:48.920Z,51.111263
2022-08-21T10:48:48.877Z,51.111305
2022-08-21T10:49:48.939Z,51.111317
2022-08-21T10:50:49.906Z,51.111275
2022-08-21T10:51:48.836Z,51.111298
2022-08-21T10:52:48.846Z,51.111454
2022-08-21T10:53:48.848Z,51.111591
2022-08-21T10:54:48.834Z,51.111378
2022-08-21T10:55:48.836Z,51.111282
2022-08-21T10:56:49.101Z,51.111332
2022-08-21T10:57:48.804Z,51.111332
2022-08-21T10:58:48.803Z,51.111336
2022-08-21T10:59:48.836Z,51.111347
2022-08-21T11:00:48.833Z,51.111336
2022-08-21T11:01:48.795Z,51.111332
2022-08-21T11:02:48.781Z,51.111340
2022-08-21T11:03:48.889Z,51.111355
2022-08-21T12:21:54.060Z,51.111259
2022-08-21T12:22:54.113Z,51.111244
2022-08-21T12:23:54.038Z,51.111244
2022-08-21T12:24:54.119Z,51.111244
2022-08-21T12:25:54.037Z,51.111229
2022-08-21T12:26:54.124Z,51.111263
2022-08-21T12:27:54.095Z,51.111263
2022-08-21T12:28:53.992Z,51.111214
2022-08-21T12:29:54.150Z,51.111225
2022-08-21T12:30:58.010Z,51.111225
2022-08-21T12:31:54.992Z,51.111221
2022-08-21T12:32:53.982Z,51.111233
2022-08-21T12:33:54.003Z,51.111240
2022-08-21T12:34:54.038Z,51.111244
2022-08-21T12:35:53.967Z,51.111282
2022-08-21T12:36:53.974Z,51.111248
2022-08-21T12:37:53.963Z,51.111229
2022-08-21T12:38:54.346Z,51.111214
2022-08-21T12:39:53.986Z,51.111210
2022-08-21T12:40:53.929Z,51.111156
2022-08-21T12:41:53.985Z,51.111214
2022-08-21T12:43:00.662Z,51.111214
2022-08-21T12:43:56.010Z,51.111237